createdAt,value
2022-08-29T00:00:59.023Z,81.14
2022-08-29T00:01:59.389Z,81.04
2022-08-29T00:02:59.659Z,81.24
2022-08-29T00:03:59.991Z,81.14
2022-08-29T00:05:00.224Z,82.04
2022-08-29T00:06:00.527Z,81.54
2022-08-29T00:07:00.826Z,81.78
2022-08-29T00:08:01.149Z,82.28
2022-08-29T00:09:01.453Z,81.38
2022-08-29T00:10:01.798Z,82.68
2022-08-29T00:11:02.098Z,82.18
2022-08-29T00:12:02.390Z,81.38
2022-08-29T00:13:02.678Z,81.48
2022-08-29T00:14:02.997Z,81.58
2022-08-29T00:15:03.305Z,81.48
2022-08-29T00:16:03.599Z,81.68
2022-08-29T00:17:03.902Z,81.68
2022-08-29T00:18:04.196Z,81.38
2022-08-29T00:19:04.515Z,81.48
2022-08-29T00:20:04.819Z,81.78
2022-08-29T00:21:05.118Z,81.58
2022-08-29T00:22:05.476Z,81.82
2022-08-29T00:23:05.649Z,81.72
2022-08-29T00:24:05.957Z,82.02
2022-08-29T00:25:06.243Z,82.22
2022-08-29T00:26:06.581Z,82.02
2022-08-29T00:27:06.893Z,82.22
2022-08-29T00:28:07.261Z,82.62
2022-08-29T00:29:07.471Z,82.92
2022-08-29T00:30:07.739Z,82.82
2022-08-29T00:31:08.068Z,82.72
2022-08-29T00:32:08.425Z,82.52
2022-08-29T00:33:08.669Z,83.93
2022-08-29T00:34:08.963Z,82.32
2022-08-29T00:35:09.267Z,83.03
2022-08-29T00:36:09.585Z,82.72
2022-08-29T00:37:09.894Z,82.72
2022-08-29T00:38:10.283Z,82.92
2022-08-29T00:39:10.460Z,82.42
2022-08-29T00:40:10.772Z,82.32
2022-08-29T00:41:11.108Z,83.12
2022-08-29T00:42:11.402Z,83.06
2022-08-29T00:43:11.710Z,83.47
2022-08-29T00:44:12.009Z,83.37
2022-08-29T00:45:12.318Z,82.86
2022-08-29T00:46:16.494Z,82.66
2022-08-29T00:47:12.991Z,82.97
2022-08-29T00:48:13.457Z,83.06
2022-08-29T00:49:13.436Z,83.26
2022-08-29T00:50:13.755Z,82.97
2022-08-29T00:51:14.068Z,82.66
2022-08-29T00:52:14.403Z,83.26
2022-08-29T02:56:47.564Z,85.74
2022-08-29T02:57:49.117Z,85.40
2022-08-29T02:58:48.013Z,85.40
2022-08-29T02:59:48.362Z,85.30
2022-08-29T03:00:48.601Z,85.10
2022-08-29T03:01:48.871Z,85.10
2022-08-29T03:02:49.108Z,84.80
2022-08-29T03:03:49.386Z,85.20
2022-08-29T03:04:49.706Z,84.89
2022-08-29T03:05:50.013Z,84.69
2022-08-29T03:06:50.328Z,84.80
2022-08-29T03:07:51.140Z,85.10
2022-08-29T03:08:50.949Z,84.89
2022-08-29T03:09:51.288Z,84.80
2022-08-29T03:10:51.582Z,85.10
2022-08-29T03:11:51.885Z,84.89
2022-08-29T03:12:52.195Z,85.00
2022-08-29T03:13:52.488Z,85.03
2022-08-29T03:14:53.788Z,85.34
2022-08-29T03:15:53.063Z,85.14
2022-08-29T03:16:53.263Z,84.94
2022-08-29T03:17:53.586Z,85.14
2022-08-29T03:18:53.904Z,85.24
2022-08-29T03:19:54.198Z,85.14
2022-08-29T03:20:54.507Z,85.03
2022-08-29T03:21:54.804Z,85.84
2022-08-29T03:22:55.120Z,85.44
2022-08-29T03:23:55.417Z,85.64
2022-08-29T03:24:55.746Z,85.34
2022-08-29T03:25:55.925Z,85.64
2022-08-29T03:26:56.877Z,86.24
2022-08-29T03:27:56.465Z,86.35
2022-08-29T03:28:56.764Z,86.35
2022-08-29T03:29:57.098Z,86.24
2022-08-29T03:30:57.441Z,85.74
2022-08-29T03:31:57.659Z,85.54
2022-08-29T03:32:57.960Z,85.98
2022-08-29T03:33:58.232Z,85.98
2022-08-29T03:34:58.535Z,85.78
2022-08-29T03:35:58.798Z,86.08
2022-08-29T03:36:59.133Z,86.79
2022-08-29T03:37:59.436Z,85.98
2022-08-29T03:38:59.735Z,86.18
2022-08-29T03:40:00.037Z,86.29
2022-08-29T03:41:00.247Z,86.69
2022-08-29T03:42:00.544Z,86.29
2022-08-29T03:43:00.864Z,87.19
2022-08-29T03:44:01.183Z,86.79
2022-08-29T03:45:01.490Z,86.89
2022-08-29T03:46:01.826Z,86.69
2022-08-29T03:47:02.170Z,86.29
2022-08-29T03:48:02.466Z,86.18
2022-08-29T03:49:02.755Z,86.49
2022-08-29T03:50:03.059Z,85.88
2022-08-29T03:51:03.364Z,86.29
2022-08-29T03:52:03.706Z,86.38
2022-08-29T03:53:03.994Z,86.33
2022-08-29T03:54:04.326Z,86.83
2022-08-29T03:55:04.627Z,87.34
2022-08-29T03:56:04.948Z,87.19
2022-08-29T03:57:05.263Z,86.69
2022-08-29T03:58:05.563Z,86.49
2022-08-29T03:59:05.871Z,86.38
2022-08-29T04:00:06.186Z,85.98
2022-08-29T04:01:06.468Z,86.29
2022-08-29T04:02:06.849Z,86.58
2022-08-29T04:03:07.160Z,86.89
2022-08-29T04:04:07.394Z,86.49
2022-08-29T04:05:08.459Z,86.18
2022-08-29T04:06:08.007Z,85.98
2022-08-29T04:07:08.341Z,85.88
2022-08-29T04:08:08.839Z,85.98
2022-08-29T04:09:08.978Z,85.82
2022-08-29T04:10:09.282Z,86.53
2022-08-29T04:11:09.580Z,85.72
2022-08-29T04:12:09.921Z,86.73
2022-08-29T04:13:10.228Z,86.13
2022-08-29T04:14:10.516Z,86.53
2022-08-29T04:15:10.797Z,86.73
2022-08-29T04:16:11.150Z,86.73
2022-08-29T04:17:11.382Z,86.43
2022-08-29T04:18:11.772Z,86.47
2022-08-29T04:19:12.019Z,87.23
2022-08-29T04:20:12.333Z,86.57
2022-08-29T04:21:12.632Z,86.77
2022-08-29T04:22:12.942Z,86.77
2022-08-29T04:23:13.238Z,87.27
2022-08-29T04:24:13.537Z,86.57
2022-08-29T04:25:13.810Z,86.36
2022-08-29T04:26:35.190Z,86.87
2022-08-29T04:27:15.442Z,86.77
2022-08-29T04:28:14.913Z,87.48
2022-08-29T04:29:14.969Z,87.27
2022-08-29T04:30:15.257Z,87.48
2022-08-29T04:31:15.578Z,86.87
2022-08-29T04:32:15.809Z,86.87
2022-08-29T04:33:17.063Z,86.36
2022-08-29T04:34:17.429Z,87.07
2022-08-29T04:35:16.670Z,86.67
2022-08-29T04:36:16.968Z,86.67
2022-08-29T04:37:17.322Z,87.27
2022-08-29T04:38:17.530Z,87.48
2022-08-29T04:39:17.819Z,86.97
2022-08-29T04:40:18.159Z,87.38
2022-08-29T04:41:18.381Z,87.38
2022-08-29T04:42:20.334Z,87.27
2022-08-29T04:43:18.988Z,87.52
2022-08-29T04:44:19.292Z,87.41
2022-08-29T04:45:19.589Z,87.92
2022-08-29T04:46:24.426Z,87.52
2022-08-29T04:47:21.210Z,87.72
2022-08-29T04:48:20.446Z,87.82
2022-08-29T04:49:20.789Z,88.02
2022-08-29T04:50:20.971Z,87.88
2022-08-29T04:51:21.277Z,88.28
2022-08-29T04:52:21.574Z,87.82
2022-08-29T04:53:21.887Z,87.92
2022-08-29T04:54:22.211Z,87.82
2022-08-29T04:55:22.662Z,88.32
2022-08-29T04:56:22.818Z,88.18
2022-08-29T04:57:23.184Z,87.88
2022-08-29T04:58:23.370Z,87.78
2022-08-29T04:59:23.669Z,87.48
2022-08-29T05:00:23.975Z,87.48
2022-08-29T05:01:24.398Z,87.03
2022-08-29T05:02:24.550Z,87.18
2022-08-29T05:03:24.759Z,87.07
2022-08-29T05:04:25.070Z,87.38
2022-08-29T05:05:25.375Z,87.48
2022-08-29T05:06:25.683Z,87.88
2022-08-29T05:07:25.977Z,87.78
2022-08-29T05:08:26.259Z,87.78
2022-08-29T05:09:26.578Z,87.98
2022-08-29T05:10:26.897Z,87.68
2022-08-29T05:11:27.201Z,87.38
2022-08-29T05:12:27.499Z,87.88
2022-08-29T05:13:27.803Z,87.58
2022-08-29T05:14:28.097Z,87.98
2022-08-29T05:15:28.420Z,88.18
2022-08-29T05:16:28.623Z,87.88
2022-08-29T05:17:28.929Z,87.94
2022-08-29T05:18:29.220Z,87.63
2022-08-29T05:19:29.549Z,87.54
2022-08-29T05:20:30.845Z,87.43
2022-08-29T05:21:30.085Z,87.43
2022-08-29T05:22:30.409Z,87.43
2022-08-29T05:23:30.707Z,87.23
2022-08-29T05:24:31.006Z,87.13
2022-08-29T05:25:31.311Z,86.93
2022-08-29T05:26:31.579Z,87.13
2022-08-29T05:27:31.922Z,87.03
2022-08-29T05:28:32.110Z,87.34
2022-08-29T05:29:32.403Z,87.34
2022-08-29T05:30:34.605Z,87.34
2022-08-29T05:31:33.093Z,87.43
2022-08-29T05:32:33.279Z,87.54
2022-08-29T05:33:33.572Z,87.74
2022-08-29T05:34:35.129Z,87.74
2022-08-29T05:35:34.190Z,87.94
2022-08-29T05:36:34.493Z,87.94
2022-08-29T05:37:34.766Z,87.94
2022-08-29T05:38:35.086Z,87.84
2022-08-29T05:39:35.414Z,87.60
2022-08-29T05:40:35.742Z,87.49
2022-08-29T05:41:38.425Z,87.40
2022-08-29T05:42:36.345Z,87.29
2022-08-29T05:43:36.633Z,87.49
2022-08-29T05:44:36.920Z,87.40
2022-08-29T05:45:37.225Z,87.19
2022-08-29T05:46:37.533Z,87.19
2022-08-29T05:47:37.884Z,87.35
2022-08-29T05:48:38.183Z,87.35
2022-08-29T05:49:38.466Z,87.55
2022-08-29T05:50:38.774Z,87.65
2022-08-29T05:51:39.964Z,87.76
2022-08-29T05:52:39.438Z,87.85
2022-08-29T05:53:39.734Z,87.76
2022-08-29T05:54:40.068Z,87.71
2022-08-29T05:55:40.252Z,87.71
2022-08-29T05:56:40.610Z,87.82
2022-08-29T05:57:40.931Z,87.71
2022-08-29T05:58:41.222Z,87.51
2022-08-29T05:59:41.571Z,87.47
2022-08-29T06:00:41.880Z,87.98
2022-08-29T06:01:42.138Z,87.67
2022-08-29T06:02:42.558Z,87.77
2022-08-29T06:03:45.938Z,87.98
2022-08-29T06:04:43.015Z,87.77
2022-08-29T06:05:43.339Z,87.63
2022-08-29T06:06:43.626Z,87.73
2022-08-29T06:07:43.910Z,87.83
2022-08-29T06:08:44.193Z,87.43
2022-08-29T06:09:44.560Z,87.63
2022-08-29T06:10:44.866Z,87.59
2022-08-29T06:11:45.182Z,87.19
2022-08-29T06:12:45.489Z,86.99
2022-08-29T06:13:45.801Z,86.88
2022-08-29T06:14:50.494Z,86.79
2022-08-29T06:15:46.481Z,86.54
2022-08-29T06:16:46.683Z,86.14
2022-08-29T06:17:47.036Z,85.84
2022-08-29T06:18:47.234Z,86.54
2022-08-29T06:19:47.543Z,85.94
2022-08-29T06:20:47.857Z,85.90
2022-08-29T06:21:48.156Z,85.70
2022-08-29T06:22:48.488Z,85.39
2022-08-29T06:23:48.782Z,85.30
2022-08-29T06:24:49.091Z,85.39
2022-08-29T06:25:49.404Z,85.36
2022-08-29T06:26:49.643Z,84.65
2022-08-29T06:27:49.972Z,84.55
2022-08-29T06:28:50.276Z,84.75
2022-08-29T06:29:50.559Z,84.95
2022-08-29T06:30:50.890Z,84.45
2022-08-29T06:31:51.221Z,84.01
2022-08-29T06:32:51.410Z,84.01
2022-08-29T06:33:51.743Z,84.11
2022-08-29T06:34:52.047Z,83.71
2022-08-29T06:35:52.416Z,83.21
2022-08-29T06:36:52.595Z,83.41
2022-08-29T06:37:52.892Z,83.95
2022-08-29T06:38:53.170Z,84.05
2022-08-29T06:39:53.453Z,83.75
2022-08-29T06:40:53.762Z,83.45
2022-08-29T06:41:54.075Z,83.65
2022-08-29T06:42:54.405Z,83.31
2022-08-29T06:43:54.713Z,83.51
2022-08-29T06:44:55.031Z,83.21
2022-08-29T06:45:55.397Z,83.21
2022-08-29T06:46:55.565Z,83.01
2022-08-29T06:47:55.903Z,83.31
2022-08-29T06:48:56.196Z,83.21
2022-08-29T06:49:56.482Z,82.60
2022-08-29T06:50:56.774Z,82.31
2022-08-29T06:51:58.602Z,82.40
2022-08-29T06:53:14.539Z,82.40
2022-08-29T06:53:58.716Z,82.31
2022-08-29T06:54:57.947Z,82.70
2022-08-29T06:55:58.235Z,83.21
2022-08-29T06:56:58.533Z,83.11
2022-08-29T06:57:58.873Z,82.90
2022-08-29T06:58:59.156Z,83.01
2022-08-29T06:59:59.435Z,83.21
2022-08-29T07:00:59.768Z,83.31
2022-08-29T07:02:00.171Z,83.41
2022-08-29T07:03:00.449Z,83.51
2022-08-29T07:04:00.684Z,83.51
2022-08-29T07:05:01.688Z,83.91
2022-08-29T07:06:01.165Z,83.41
2022-08-29T07:07:01.464Z,83.71
2022-08-29T07:08:01.767Z,83.51
2022-08-29T07:09:02.093Z,83.81
2022-08-29T07:10:02.375Z,83.51
2022-08-29T07:11:02.692Z,83.81
2022-08-29T07:12:03.062Z,83.45
2022-08-29T07:13:03.245Z,83.91
2022-08-29T07:14:03.559Z,83.11
2022-08-29T07:15:03.856Z,82.90
2022-08-29T07:16:04.229Z,82.81
2022-08-29T07:17:04.410Z,81.30
2022-08-29T07:18:04.713Z,81.60
2022-08-29T07:19:05.001Z,81.30
2022-08-29T07:20:05.279Z,81.80
2022-08-29T07:21:05.573Z,82.20
2022-08-29T07:22:05.891Z,82.51
2022-08-29T07:23:06.185Z,82.06
2022-08-29T07:24:06.526Z,82.37
2022-08-29T07:25:06.717Z,82.57
2022-08-29T07:26:07.015Z,81.76
2022-08-29T07:27:08.267Z,81.76
2022-08-29T07:28:07.914Z,81.56
2022-08-29T07:29:07.946Z,81.76
2022-08-29T07:30:08.240Z,81.67
2022-08-29T07:31:08.569Z,81.56
2022-08-29T07:32:08.796Z,81.67
2022-08-29T07:33:09.100Z,81.26
2022-08-29T07:34:09.389Z,81.87
2022-08-29T07:35:13.357Z,82.06
2022-08-29T07:36:09.968Z,81.76
2022-08-29T07:37:10.283Z,81.67
2022-08-29T07:38:10.580Z,81.16
2022-08-29T07:39:10.917Z,81.26
2022-08-29T07:40:11.263Z,80.96
2022-08-29T07:41:11.469Z,81.36
2022-08-29T07:42:11.687Z,81.42
2022-08-29T07:43:14.474Z,81.52
2022-08-29T07:44:13.313Z,81.32
2022-08-29T07:45:12.547Z,81.23
2022-08-29T07:46:12.916Z,81.73
2022-08-29T07:47:13.088Z,80.62
2022-08-29T07:48:13.397Z,81.02
2022-08-29T07:49:13.746Z,81.62
2022-08-29T07:50:15.824Z,81.02
2022-08-29T07:51:14.348Z,81.52
2022-08-29T07:52:14.679Z,81.23
2022-08-29T07:53:15.115Z,80.42
2022-08-29T07:54:15.314Z,80.72
2022-08-29T07:55:15.625Z,81.23
2022-08-29T07:56:15.937Z,81.23
2022-08-29T07:57:16.288Z,81.82
2022-08-29T07:58:16.654Z,82.43
2022-08-29T07:59:16.888Z,80.79
2022-08-29T08:00:17.195Z,81.09
2022-08-29T08:01:21.620Z,81.68
2022-08-29T08:02:17.775Z,82.29
2022-08-29T08:03:18.011Z,81.88
2022-08-29T08:04:18.321Z,81.88
2022-08-29T08:05:18.566Z,81.59
2022-08-29T08:06:18.862Z,80.98
2022-08-29T08:07:19.185Z,80.08
2022-08-29T08:08:19.823Z,79.78
2022-08-29T08:09:19.697Z,79.88
2022-08-29T08:10:19.985Z,80.28
2022-08-29T08:11:20.296Z,80.18
2022-08-29T08:12:20.603Z,80.98
2022-08-29T08:13:20.932Z,81.18
2022-08-29T08:14:21.246Z,81.24
2022-08-29T08:15:23.373Z,80.74
2022-08-29T08:16:21.811Z,80.85
2022-08-29T08:17:22.110Z,80.44
2022-08-29T08:18:22.444Z,80.35
2022-08-29T08:19:22.733Z,80.65
2022-08-29T08:20:23.012Z,80.85
2022-08-29T08:21:23.335Z,80.94
2022-08-29T08:22:23.599Z,80.94
2022-08-29T08:23:23.902Z,81.04
2022-08-29T08:24:24.215Z,80.80
2022-08-29T08:25:24.625Z,81.11
2022-08-29T08:26:24.803Z,81.21
2022-08-29T08:27:25.106Z,80.00
2022-08-29T08:28:25.450Z,79.91
2022-08-29T08:29:25.638Z,80.71
2022-08-29T08:30:26.102Z,80.61
2022-08-29T08:31:26.290Z,82.01
2022-08-29T08:32:27.672Z,79.41
2022-08-29T08:33:27.875Z,80.11
2022-08-29T08:34:27.091Z,80.61
2022-08-29T08:35:27.359Z,81.24
2022-08-29T08:36:27.840Z,81.35
2022-08-29T08:37:28.336Z,82.05
2022-08-29T08:38:28.309Z,81.65
2022-08-29T08:39:28.639Z,81.95
2022-08-29T08:40:28.970Z,83.15
2022-08-29T08:41:29.211Z,83.85
2022-08-29T08:42:29.580Z,83.01
2022-08-29T08:43:29.757Z,83.01
2022-08-29T08:44:30.066Z,83.11
2022-08-29T08:45:31.367Z,82.61
2022-08-29T08:46:30.661Z,82.61
2022-08-29T08:47:30.912Z,82.11
2022-08-29T08:48:31.229Z,82.31
2022-08-29T08:49:31.534Z,82.11
2022-08-29T08:50:31.852Z,82.91
2022-08-29T08:51:32.191Z,84.11
2022-08-29T08:52:32.505Z,82.61
2022-08-29T08:53:32.803Z,82.81
2022-08-29T08:54:33.087Z,81.81
2022-08-29T08:55:33.386Z,83.25
2022-08-29T08:56:33.684Z,83.25
2022-08-29T08:57:33.993Z,84.45
2022-08-29T08:58:34.328Z,85.25
2022-08-29T08:59:34.630Z,83.55
2022-08-29T09:00:34.925Z,82.55
2022-08-29T09:01:35.291Z,83.45
2022-08-29T09:02:35.604Z,83.61
2022-08-29T09:03:35.829Z,83.05
2022-08-29T09:04:36.113Z,83.05
2022-08-29T09:05:36.426Z,84.05
2022-08-29T09:06:36.664Z,84.71
2022-08-29T09:07:37.013Z,83.01
2022-08-29T09:08:37.210Z,83.01
2022-08-29T09:09:37.504Z,83.91
2022-08-29T09:10:37.798Z,83.61
2022-08-29T09:11:38.094Z,83.77
2022-08-29T09:12:38.407Z,82.97
2022-08-29T09:13:38.713Z,81.87
2022-08-29T09:14:39.027Z,82.27
2022-08-29T09:15:39.337Z,83.21
2022-08-29T09:16:39.691Z,83.21
2022-08-29T09:17:39.970Z,83.17
2022-08-29T09:18:40.146Z,82.37
2022-08-29T09:19:40.461Z,81.37
2022-08-29T09:20:40.759Z,81.67
2022-08-29T09:21:42.026Z,83.61
2022-08-29T09:22:41.382Z,83.51
2022-08-29T09:23:41.564Z,83.71
2022-08-29T09:24:41.849Z,83.81
2022-08-29T09:25:42.141Z,82.21
2022-08-29T09:26:42.484Z,83.81
2022-08-29T09:27:42.687Z,83.11
2022-08-29T09:28:43.006Z,84.21
2022-08-29T09:29:43.310Z,84.51
2022-08-29T09:30:43.608Z,83.61
2022-08-29T09:31:44.014Z,83.31
2022-08-29T09:32:44.215Z,84.57
2022-08-29T09:33:44.565Z,82.37
2022-08-29T09:35:07.446Z,83.07
2022-08-29T09:35:46.069Z,83.37
2022-08-29T09:36:46.068Z,83.47
2022-08-29T09:37:45.627Z,83.07
2022-08-29T09:38:45.901Z,82.43
2022-08-29T09:39:49.998Z,82.03
2022-08-29T09:40:47.584Z,81.83
2022-08-29T09:41:46.839Z,82.43
2022-08-29T09:42:47.211Z,81.69
2022-08-29T09:43:47.409Z,83.19
2022-08-29T09:44:47.712Z,81.75
2022-08-29T09:45:48.061Z,80.51
2022-08-29T09:46:48.250Z,80.91
2022-08-29T09:47:48.577Z,79.08
2022-08-29T09:48:48.921Z,79.38
2022-08-29T09:49:49.109Z,80.38
2022-08-29T09:50:49.432Z,79.58
2022-08-29T09:51:49.742Z,78.08
2022-08-29T09:52:50.061Z,78.98
2022-08-29T09:53:50.414Z,79.38
2022-08-29T09:54:50.703Z,79.22
2022-08-29T09:55:50.981Z,79.91
2022-08-29T09:56:51.264Z,79.97
2022-08-29T09:57:51.568Z,78.28
2022-08-29T09:58:51.887Z,78.14
2022-08-29T09:59:52.186Z,79.54
2022-08-29T10:00:52.512Z,78.44
2022-08-29T10:01:52.782Z,78.34
2022-08-29T10:02:53.066Z,77.34
2022-08-29T10:03:53.393Z,78.68
2022-08-29T10:04:55.510Z,79.58
2022-08-29T10:05:53.931Z,79.94
2022-08-29T10:06:54.241Z,79.14
2022-08-29T10:07:54.525Z,79.34
2022-08-29T10:08:54.832Z,77.21
2022-08-29T10:09:55.131Z,77.11
2022-08-29T10:10:55.408Z,75.91
2022-08-29T10:11:56.563Z,77.70
2022-08-29T10:12:56.006Z,76.17
2022-08-29T10:13:56.319Z,76.87
2022-08-29T10:14:56.659Z,75.34
2022-08-29T10:15:56.958Z,75.84
2022-08-29T10:16:57.339Z,75.24
2022-08-29T10:17:57.523Z,75.04
2022-08-29T10:18:57.820Z,74.51
2022-08-29T10:19:58.096Z,75.50
2022-08-29T10:20:58.404Z,75.20
2022-08-29T10:21:58.761Z,75.67
2022-08-29T10:22:59.053Z,74.17
2022-08-29T10:23:59.361Z,73.77
2022-08-29T10:24:59.669Z,73.97
2022-08-29T10:25:59.978Z,74.27
2022-08-29T10:27:00.313Z,73.61
2022-08-29T10:28:00.505Z,74.21
2022-08-29T10:29:00.810Z,74.34
2022-08-29T10:30:01.097Z,74.54
2022-08-29T10:31:01.351Z,76.14
2022-08-29T10:32:01.792Z,76.73
2022-08-29T10:33:01.997Z,76.40
2022-08-29T10:34:02.295Z,76.40
2022-08-29T10:35:02.592Z,75.31
2022-08-29T10:36:02.903Z,74.37
2022-08-29T10:37:03.247Z,76.26
2022-08-29T10:38:03.535Z,76.06
2022-08-29T10:39:03.844Z,73.94
2022-08-29T10:40:04.205Z,75.63
2022-08-29T10:41:04.472Z,73.64
2022-08-29T10:42:04.654Z,74.54
2022-08-29T10:43:04.943Z,71.84
2022-08-29T10:44:06.146Z,73.84
2022-08-29T10:45:05.526Z,74.30
2022-08-29T10:46:05.912Z,72.21
2022-08-29T10:47:06.121Z,72.14
2022-08-29T10:48:06.431Z,70.89
2022-08-29T10:49:06.766Z,72.28
2022-08-29T10:50:10.140Z,74.77
2022-08-29T10:51:08.369Z,73.64
2022-08-29T10:52:07.604Z,71.65
2022-08-29T10:53:07.908Z,72.44
2022-08-29T10:54:08.250Z,72.11
2022-08-29T10:55:08.581Z,74.30
2022-08-29T10:56:08.768Z,71.61
2022-08-29T10:57:09.072Z,72.14
2022-08-29T10:58:12.620Z,73.64
2022-08-29T10:59:09.680Z,73.11
2022-08-29T11:00:09.998Z,73.97
2022-08-29T11:01:10.466Z,72.67
2022-08-29T11:02:10.617Z,72.97
2022-08-29T11:03:10.931Z,69.26
2022-08-29T11:04:11.227Z,69.66
2022-08-29T11:05:12.342Z,70.15
2022-08-29T11:06:11.714Z,70.25
2022-08-29T11:07:12.015Z,70.45
2022-08-29T11:08:15.979Z,70.25
2022-08-29T11:09:12.574Z,69.56
2022-08-29T11:10:12.908Z,71.94
2022-08-29T11:11:13.097Z,71.41
2022-08-29T11:12:17.493Z,71.51
2022-08-29T11:13:13.621Z,68.70
2022-08-29T11:14:13.916Z,69.09
2022-08-29T11:15:14.285Z,67.71
2022-08-29T11:16:14.547Z,68.23
2022-08-29T11:17:14.771Z,68.96
2022-08-29T11:18:15.525Z,69.39
2022-08-29T11:19:21.560Z,69.89
2022-08-29T11:20:16.584Z,69.92
2022-08-29T11:21:15.834Z,71.12
2022-08-29T11:22:16.057Z,70.52
2022-08-29T11:23:16.397Z,70.22
2022-08-29T11:24:16.689Z,69.92
2022-08-29T11:25:16.962Z,70.98
2022-08-29T11:26:17.241Z,70.15
2022-08-29T11:27:17.510Z,69.66
2022-08-29T11:28:17.820Z,69.23
2022-08-29T11:29:18.127Z,69.20
2022-08-29T11:30:18.431Z,67.11
2022-08-29T11:31:18.813Z,68.20
2022-08-29T11:32:18.983Z,64.73
2022-08-29T11:33:19.311Z,67.71
2022-08-29T11:34:19.622Z,68.40
2022-08-29T11:35:19.919Z,68.96
2022-08-29T11:36:20.222Z,65.19
2022-08-29T11:37:20.530Z,67.77
2022-08-29T11:38:20.855Z,68.83
2022-08-29T11:39:21.118Z,68.90
2022-08-29T11:40:47.287Z,66.22
2022-08-29T11:41:26.617Z,66.05
2022-08-29T11:43:23.375Z,67.14
2022-08-29T11:44:22.610Z,67.64
2022-08-29T11:45:22.909Z,67.31
2022-08-29T11:46:23.256Z,65.23
2022-08-29T11:47:23.481Z,63.37
2022-08-29T11:48:25.620Z,66.35
2022-08-29T11:49:24.013Z,67.64
2022-08-29T11:50:24.321Z,65.46
2022-08-29T11:51:24.615Z,66.55
2022-08-29T11:52:24.918Z,66.25
2022-08-29T11:53:25.238Z,64.96
2022-08-29T11:54:25.545Z,64.30
2022-08-29T11:55:25.891Z,66.48
2022-08-29T11:56:27.813Z,66.28
2022-08-29T11:57:26.406Z,67.44
2022-08-29T11:58:26.704Z,65.00
2022-08-29T11:59:27.003Z,63.42
2022-08-29T12:00:27.357Z,63.71
2022-08-29T12:01:27.544Z,62.99
2022-08-29T12:02:27.955Z,62.39
2022-08-29T12:03:28.548Z,64.28
2022-08-29T12:04:28.572Z,62.79
2022-08-29T12:05:28.799Z,64.37
2022-08-29T12:06:29.138Z,62.96
2022-08-29T12:07:29.442Z,61.74
2022-08-29T12:08:36.818Z,61.54
2022-08-29T12:09:31.032Z,60.35
2022-08-29T12:10:30.282Z,61.54
2022-08-29T12:11:30.632Z,62.43
2022-08-29T12:12:30.919Z,61.74
2022-08-29T12:13:31.284Z,59.86
2022-08-29T12:14:37.334Z,60.55
2022-08-29T12:15:32.860Z,62.04
2022-08-29T12:16:32.225Z,64.11
2022-08-29T12:17:58.210Z,60.75
2022-08-29T12:18:36.507Z,61.67
2022-08-29T12:19:32.992Z,63.55
2022-08-29T12:20:33.313Z,61.27
2022-08-29T12:21:33.641Z,62.96
2022-08-29T12:22:33.992Z,63.35
2022-08-29T12:23:35.454Z,62.73
2022-08-29T12:24:34.457Z,61.02
2022-08-29T12:25:34.766Z,63.29
2022-08-29T12:26:35.049Z,62.57
2022-08-29T12:27:35.378Z,59.60
2022-08-29T12:28:35.701Z,62.27
2022-08-29T12:29:41.292Z,61.08
2022-08-29T12:30:37.286Z,60.10
2022-08-29T12:31:36.547Z,61.41
2022-08-29T12:32:40.164Z,62.23
2022-08-29T12:33:37.144Z,61.74
2022-08-29T12:34:37.333Z,61.94
2022-08-29T12:35:37.625Z,63.71
2022-08-29T12:36:37.860Z,62.70
2022-08-29T12:37:38.158Z,60.32
2022-08-29T12:38:42.137Z,61.41
2022-08-29T12:39:38.748Z,62.10
2022-08-29T12:40:39.139Z,61.38
2022-08-29T12:41:39.320Z,60.59
2022-08-29T12:42:39.661Z,62.44
2022-08-29T12:43:39.988Z,61.05
2022-08-29T12:44:40.308Z,60.04
2022-08-29T12:45:40.541Z,59.87
2022-08-29T12:46:40.892Z,60.46
2022-08-29T12:47:45.746Z,60.56
2022-08-29T12:48:41.436Z,62.12
2022-08-29T12:49:41.770Z,59.84
2022-08-29T12:50:42.078Z,59.34
2022-08-29T12:51:42.433Z,60.17
2022-08-29T12:52:42.610Z,60.96
2022-08-29T12:53:42.899Z,59.97
2022-08-29T12:54:45.978Z,60.46
2022-08-29T12:55:43.434Z,59.97
2022-08-29T12:56:43.749Z,59.97
2022-08-29T12:57:44.041Z,60.07
2022-08-29T12:58:44.382Z,58.98
2022-08-29T12:59:44.679Z,59.50
2022-08-29T13:00:44.966Z,59.33
2022-08-29T13:01:45.291Z,60.52
2022-08-29T13:02:45.562Z,61.05
2022-08-29T13:03:45.868Z,61.05
2022-08-29T13:04:46.192Z,60.65
2022-08-29T13:05:46.491Z,61.91
2022-08-29T13:06:46.820Z,62.37
2022-08-29T13:07:47.118Z,63.23
2022-08-29T13:08:47.397Z,62.54
2022-08-29T13:09:47.680Z,61.82
2022-08-29T13:10:47.954Z,58.92
2022-08-29T13:11:48.265Z,57.93
2022-08-29T13:12:48.560Z,58.33
2022-08-29T13:13:48.829Z,61.19
2022-08-29T13:14:49.153Z,60.28
2022-08-29T13:15:49.519Z,59.46
2022-08-29T13:16:49.719Z,58.77
2022-08-29T13:17:50.014Z,57.98
2022-08-29T13:19:09.746Z,57.12
2022-08-29T13:19:51.608Z,58.53
2022-08-29T13:20:50.908Z,60.21
2022-08-29T13:21:51.212Z,60.21
2022-08-29T13:22:51.530Z,59.98
2022-08-29T13:23:51.814Z,58.89
2022-08-29T13:24:52.077Z,59.98
2022-08-29T13:25:52.398Z,59.39
2022-08-29T13:27:05.641Z,58.89
2022-08-29T13:27:54.616Z,60.21
2022-08-29T13:28:53.169Z,60.04
2022-08-29T13:29:53.490Z,60.33
2022-08-29T13:30:53.802Z,60.33
2022-08-29T13:31:54.122Z,59.87
2022-08-29T13:32:54.405Z,60.30
2022-08-29T13:33:54.678Z,61.98
2022-08-29T13:34:54.982Z,61.88
2022-08-29T13:35:55.266Z,62.47
2022-08-29T13:36:55.578Z,61.68
2022-08-29T13:37:55.908Z,63.16
2022-08-29T13:38:56.198Z,63.82
2022-08-29T13:39:56.589Z,60.96
2022-08-29T13:40:56.825Z,61.88
2022-08-29T13:41:57.128Z,61.85
2022-08-29T13:42:57.407Z,62.47
2022-08-29T13:43:57.690Z,61.98
2022-08-29T13:44:57.973Z,63.46
2022-08-29T13:45:58.324Z,62.14
2022-08-29T13:46:58.555Z,62.04
2022-08-29T13:47:58.880Z,62.74
2022-08-29T13:48:59.182Z,63.72
2022-08-29T13:49:59.559Z,63.40
2022-08-29T13:51:03.397Z,61.59
2022-08-29T13:52:01.059Z,60.50
2022-08-29T13:53:00.439Z,60.70
2022-08-29T13:54:00.730Z,61.10
2022-08-29T13:55:01.029Z,62.74
2022-08-29T13:56:01.329Z,61.96
2022-08-29T13:57:03.323Z,62.32
2022-08-29T13:58:01.871Z,60.54
2022-08-29T13:59:02.173Z,61.33
2022-08-29T14:00:02.467Z,59.56
2022-08-29T14:01:29.476Z,60.74
2022-08-29T14:02:08.886Z,60.31
2022-08-29T14:03:04.671Z,61.30
2022-08-29T14:04:34.170Z,60.68
2022-08-29T14:05:04.982Z,61.08
2022-08-29T14:06:04.395Z,60.88
2022-08-29T14:07:04.562Z,57.11
2022-08-29T14:08:04.870Z,57.92
2022-08-29T14:09:05.173Z,57.73
2022-08-29T14:10:05.462Z,58.84
2022-08-29T14:11:05.781Z,61.21
2022-08-29T14:12:07.085Z,58.05
2022-08-29T14:13:06.334Z,58.02
2022-08-29T14:14:06.678Z,57.53
2022-08-29T14:15:09.633Z,57.04
2022-08-29T14:16:07.156Z,56.15
2022-08-29T14:17:07.361Z,58.22
2022-08-29T14:18:07.643Z,58.88
2022-08-29T14:19:07.958Z,58.88
2022-08-29T14:20:08.340Z,55.93
2022-08-29T14:21:08.524Z,56.81
2022-08-29T14:22:08.827Z,58.29
2022-08-29T14:23:09.121Z,56.52
2022-08-29T14:24:09.445Z,55.24
2022-08-29T14:25:09.739Z,56.22
2022-08-29T14:26:10.032Z,57.77
2022-08-29T14:27:10.316Z,55.90
2022-08-29T14:28:10.618Z,55.41
2022-08-29T14:29:11.903Z,55.53
2022-08-29T14:30:11.120Z,56.02
2022-08-29T14:31:11.521Z,57.37
2022-08-29T14:32:11.742Z,57.67
2022-08-29T14:33:12.041Z,58.36
2022-08-29T14:34:12.335Z,55.51
2022-08-29T14:35:25.906Z,56.29
2022-08-29T14:36:13.945Z,56.98
2022-08-29T14:37:13.170Z,55.21
2022-08-29T14:38:13.576Z,57.87
2022-08-29T14:39:13.763Z,58.06
2022-08-29T14:40:14.137Z,58.36
2022-08-29T14:41:15.352Z,57.48
2022-08-29T14:42:14.622Z,55.97
2022-08-29T14:43:14.911Z,57.54
2022-08-29T14:44:15.943Z,57.74
2022-08-29T14:45:16.483Z,58.23
2022-08-29T14:46:15.778Z,56.66
2022-08-29T14:47:15.994Z,54.91
2022-08-29T14:48:16.502Z,57.08
2022-08-29T14:49:16.597Z,56.59
2022-08-29T14:50:16.875Z,56.29
2022-08-29T14:51:17.168Z,56.00
2022-08-29T14:52:17.502Z,56.66
2022-08-29T14:53:17.787Z,53.02
2022-08-29T14:54:18.054Z,54.62
2022-08-29T14:55:18.360Z,54.91
2022-08-29T14:56:37.442Z,51.69
2022-08-29T14:57:19.988Z,51.89
2022-08-29T14:58:19.238Z,53.86
2022-08-29T14:59:19.559Z,53.07
2022-08-29T15:00:19.855Z,52.11
2022-08-29T15:01:20.204Z,52.70